Flight Track Log - Related Links

Times and Time Zones

All times are in EDT time to prevent confusion due to time zone crossing. See the SWA1435 flight status page for this flight to view local times or setup timezone preferences in your user account.

Time Position Orientation Groundspeed Altitude Reporting Facility
EDT Latitude Longitude Course Direction KTS km/h feet Rate Location/Type
Fri 07:10:15 32.8833 -96.8833 16° North 164 304 3.400  Level Dallas / Fort Worth TRACON
Fri 07:11:57 32.9667 -96.9000 350° North 236 438 8.800 3.444 Climbing Dallas / Fort Worth TRACON
Fri 07:13:51 33.1119 -96.8803 North 291 539 15.800 3.138 Climbing Fort Worth Center
Fri 07:14:51 33.1956 -96.8672 North 317 587 17.900 2.400 Climbing Fort Worth Center
Fri 07:15:00 33.3866 -96.5600 16° North  Level FlightAware Approximate
Fri 07:15:51 33.3142 -96.8467 North 373 690 20.600  Level Fort Worth Center
Fri 07:16:51 33.4289 -96.8261 North 412 763 23.600 2.550 Climbing Fort Worth Center
Fri 07:17:51 33.5456 -96.7656 23° Northeast 428 793 25.700 1.200 Climbing Fort Worth Center
Fri 07:18:51 33.6642 -96.6897 28° Northeast 466 863 26.000 150 Climbing Fort Worth Center
Fri 07:19:51 33.7806 -96.6139 28° Northeast 466 863 26.000 100 Level Fort Worth Center
Fri 07:20:51 33.8844 -96.5478 28° Northeast 466 863 26.200 1.250 Climbing Fort Worth Center
Fri 07:21:51 34.0050 -96.4714 28° Northeast 474 877 28.500 2.300 Climbing Fort Worth Center
Fri 07:22:51 34.1314 -96.3747 32° Northeast 480 888 30.800 2.000 Climbing Fort Worth Center
Fri 07:23:51 34.2475 -96.2778 35° Northeast 495 917 32.500 1.550 Climbing Fort Worth Center
Fri 07:24:51 34.3697 -96.1781 34° Northeast 509 943 33.900 1.850 Climbing Fort Worth Center
Fri 07:25:51 34.4939 -96.0756 34° Northeast 521 966 36.200 1.800 Climbing Fort Worth Center
Fri 07:26:51 34.6117 -95.9778 34° Northeast 527 975 37.500 1.050 Climbing Fort Worth Center
Fri 07:27:51 34.7356 -95.8772 34° Northeast 527 975 38.300 1.050 Climbing Fort Worth Center
Fri 07:28:51 34.8575 -95.7739 35° Northeast 527 975 39.600 1.250 Climbing Fort Worth Center
Fri 07:29:51 34.9769 -95.6650 37° Northeast 532 985 40.800 700 Climbing Fort Worth Center
Fri 07:30:51 35.0942 -95.5561 37° Northeast 532 985 41.000 66 Climbing Fort Worth Center
Fri 07:32:53 35.3250 -95.3319 38° Northeast 523 969 41.000  Level Kansas City Center
Fri 07:33:17 35.3708 -95.2892 37° Northeast 515 954 41.000  Level Memphis Center
Fri 07:34:17 35.4878 -95.1786 38° Northeast 515 954 41.000  Level Memphis Center
Fri 07:35:17 35.6003 -95.0703 38° Northeast 510 945 41.000  Level Memphis Center
Fri 07:36:17 35.7150 -94.9619 37° Northeast 510 945 41.000  Level Memphis Center
Fri 07:37:17 35.8275 -94.8503 39° Northeast 510 945 41.000  Level Memphis Center
Fri 07:38:17 35.9419 -94.7386 38° Northeast 510 945 41.000  Level Memphis Center
Fri 07:39:17 36.0583 -94.6267 38° Northeast 510 945 41.000  Level Memphis Center
Fri 07:41:01 36.2389 -94.4503 38° Northeast 526 974 41.000  Level Kansas City Center
Fri 07:42:02 36.3528 -94.3386 38° Northeast 524 970 41.000  Level Kansas City Center
Fri 07:43:03 36.4669 -94.2261 38° Northeast 524 970 41.000  Level Kansas City Center
Fri 07:44:03 36.5819 -94.1128 38° Northeast 527 975 41.000  Level Kansas City Center
Fri 07:45:03 36.7197 -93.9753 39° Northeast 528 978 41.000  Level Kansas City Center
Fri 07:46:06 36.8342 -93.8628 38° Northeast 526 974 41.000  Level Kansas City Center
Fri 07:47:06 36.9300 -93.7653 39° Northeast 527 975 41.000  Level Kansas City Center
Fri 07:48:07 37.0675 -93.6261 39° Northeast 527 975 41.000  Level Kansas City Center
Fri 07:49:08 37.1831 -93.5097 39° Northeast 530 982 41.000  Level Kansas City Center
Fri 07:50:07 37.2986 -93.3922 39° Northeast 531 983 41.000  Level Kansas City Center
Fri 07:51:10 37.4122 -93.2703 40° Northeast 533 987 41.000  Level Kansas City Center
Fri 07:52:09 37.5214 -93.1425 43° Northeast 534 990 41.000  Level Kansas City Center
Fri 07:53:11 37.6294 -93.0144 43° Northeast 532 985 41.000  Level Kansas City Center
Fri 07:54:12 37.7403 -92.8858 43° Northeast 536 993 41.000  Level Kansas City Center
Fri 07:55:13 37.8503 -92.7558 43° Northeast 535 991 41.000 -244 Level Kansas City Center
Fri 07:56:15 37.9386 -92.6286 49° Northeast 536 993 40.500 -1.574 Descending Kansas City Center
Fri 07:57:15 38.0219 -92.4731 56° Northeast 537 995 37.800 -2.847 Descending Kansas City Center
Fri 07:58:13 38.1083 -92.3167 55° Northeast 542 1004 34.900 -2.950 Descending Kansas City Center
Fri 07:59:15 38.2094 -92.1272 56° Northeast 534 990 31.900 -2.634 Descending Kansas City Center
Fri 08:00:16 38.2911 -91.9739 56° Northeast 524 970 29.500 -2.281 Descending Kansas City Center
Fri 08:01:16 38.3714 -91.8231 56° Northeast 518 959 27.300 -2.049 Descending Kansas City Center
Fri 08:02:19 38.4472 -91.6797 56° Northeast 501 929 25.300 -1.839 Descending Kansas City Center
Fri 08:03:20 38.5200 -91.5419 56° Northeast 483 895 23.500 -2.195 Descending Kansas City Center
Fri 08:04:22 38.5875 -91.4061 58° Northeast 456 845 20.800 -2.538 Descending Kansas City Center
Fri 08:05:04 38.6392 -91.2564 66° East 425 787 19.100 -2.262 Descending FAA TRACON SMA TRACON (SMA)
Fri 08:05:23 38.6583 -91.2186 57° Northeast 416 771 18.500 -2.100 Descending FAA TRACON SMA TRACON (SMA)
Fri 08:05:44 38.6764 -91.1814 58° Northeast 408 756 17.700 -2.341 Descending FAA TRACON SMA TRACON (SMA)
Fri 08:06:04 38.6900 -91.1303 71° East 400 740 16.900 -2.154 Descending FAA TRACON SMA TRACON (SMA)
Fri 08:06:23 38.6931 -91.0875 85° East 394 729 16.300 -1.800 Descending FAA TRACON SMA TRACON (SMA)
Fri 08:06:44 38.6958 -91.0453 85° East 389 721 15.700 -2.049 Descending FAA TRACON SMA TRACON (SMA)
Fri 08:07:04 38.6953 -90.9931 91° East 381 705 14.900 -2.250 Descending FAA TRACON SMA TRACON (SMA)
Fri 08:07:24 38.6964 -90.9517 88° East 378 700 14.200 -1.950 Descending FAA TRACON SMA TRACON (SMA)
Fri 08:07:44 38.6967 -90.9106 89° East 375 695 13.600 -2.100 Descending FAA TRACON SMA TRACON (SMA)
Fri 08:08:04 38.6983 -90.8603 88° East 369 684 12.800 -2.100 Descending FAA TRACON SMA TRACON (SMA)
Fri 08:08:24 38.6983 -90.8200 90° East 366 678 12.200 -1.846 Descending FAA TRACON SMA TRACON (SMA)
Fri 08:08:43 38.6994 -90.7808 88° East 362 671 11.600 -2.100 Descending FAA TRACON SMA TRACON (SMA)
Fri 08:09:04 38.7003 -90.7317 89° East 357 661 10.800 -1.902 Descending FAA TRACON SMA TRACON (SMA)
Fri 08:09:24 38.7008 -90.6931 89° East 353 653 10.300 -923 Descending FAA TRACON SMA TRACON (SMA)
Fri 08:09:43 38.7014 -90.6561 89° East 342 634 10.200 -750 Descending FAA TRACON SMA TRACON (SMA)
Fri 08:10:04 38.7036 -90.6122 86° East 324 600 9.800 -1.171 Descending FAA TRACON SMA TRACON (SMA)
Fri 08:10:24 38.7047 -90.5775 88° East 316 586 9.400 -1.200 Descending FAA TRACON SMA TRACON (SMA)
Fri 08:10:44 38.7064 -90.5436 86° East 312 578 9.000 -1.500 Descending FAA TRACON SMA TRACON (SMA)
Fri 08:11:04 38.7081 -90.5019 87° East 306 566 8.400 -1.500 Descending FAA TRACON SMA TRACON (SMA)
Fri 08:11:24 38.7053 -90.4692 96° East 304 563 8.000 -1.050 Descending FAA TRACON SMA TRACON (SMA)
Fri 08:11:44 38.6936 -90.4403 117° Southeast 302 560 7.700 -923 Descending FAA TRACON SMA TRACON (SMA)
Fri 08:12:03 38.6764 -90.4069 123° Southeast 292 541 7.400 -750 Descending FAA TRACON SMA TRACON (SMA)
Fri 08:12:24 38.6639 -90.3806 121° Southeast 282 523 7.200 -878 Descending FAA TRACON SMA TRACON (SMA)
Fri 08:12:44 38.6517 -90.3550 121° Southeast 275 509 6.800 -1.200 Descending FAA TRACON SMA TRACON (SMA)
Fri 08:13:04 38.6364 -90.3233 122° Southeast 272 504 6.400 -1.200 Descending FAA TRACON SMA TRACON (SMA)
Fri 08:13:24 38.6242 -90.2983 122° Southeast 271 502 6.000 -1.050 Descending FAA TRACON SMA TRACON (SMA)
Fri 08:13:44 38.6086 -90.2672 123° Southeast 270 501 5.700 -900 Descending FAA TRACON SMA TRACON (SMA)
Fri 08:14:04 38.5967 -90.2428 122° Southeast 265 491 5.400 -1.050 Descending FAA TRACON SMA TRACON (SMA)
Fri 08:14:24 38.5858 -90.2172 118° Southeast 265 491 5.000 -900 Descending FAA TRACON SMA TRACON (SMA)
Fri 08:14:44 38.5903 -90.1839 80° East 269 499 4.800 -750 Descending FAA TRACON SMA TRACON (SMA)
Fri 08:15:04 38.6050 -90.1683 40° Northeast 239 443 4.500 -900 Descending FAA TRACON SMA TRACON (SMA)
Fri 08:15:24 38.6194 -90.1533 39° Northeast 220 407 4.200 -1.024 Descending FAA TRACON SMA TRACON (SMA)
Fri 08:15:45 38.6372 -90.1361 37° Northeast 208 385 3.800 -1.077 Descending FAA TRACON SMA TRACON (SMA)
Fri 08:16:03 38.6517 -90.1375 356° North 200 370 3.500 -462 Descending FAA TRACON SMA TRACON (SMA)
Fri 08:16:24 38.6628 -90.1486 322° Northwest 173 320 3.500 -585 Level FAA TRACON SMA TRACON (SMA)
Fri 08:16:44 38.6747 -90.1644 314° West 161 298 3.100 -900 Descending FAA TRACON SMA TRACON (SMA)
Fri 08:17:04 38.6819 -90.1792 302° West 159 295 2.900 -900 Descending FAA TRACON SMA TRACON (SMA)
Fri 08:17:24 38.6883 -90.1922 302° West 146 270 2.500 -1.200 Descending FAA TRACON SMA TRACON (SMA)
Fri 08:17:44 38.6956 -90.2081 300° West 134 248 2.100 -900 Descending FAA TRACON SMA TRACON (SMA)
Fri 08:18:04 38.7008 -90.2175 306° West 115 212 1.900 -600 Descending FAA TRACON SMA TRACON (SMA)
Fri 08:18:24 38.7053 -90.2267 302° West 100 185 1.700 -600 Descending FAA TRACON SMA TRACON (SMA)
Fri 08:18:44 38.7114 -90.2394 302° West 105 195 1.500 -600 Descending FAA TRACON SMA TRACON (SMA)
Fri 08:19:04 38.7167 -90.2497 303° West 110 204 1.300 -600 Descending FAA TRACON SMA TRACON (SMA)
Fri 08:19:24 38.7217 -90.2603 301° West 114 211 1.100 -750 Descending FAA TRACON SMA TRACON (SMA)
Fri 08:19:44 38.7283 -90.2733 303° West 115 212 800 -600 Descending FAA TRACON SMA TRACON (SMA)
Fri 08:20:04 38.7317 -90.2814 298° West 113 209 700 -300 Descending FAA TRACON SMA TRACON (SMA)

Login

Don't have an account? Register now (free) for customized features, flight alerts, and more!